Hauptseite
METAR-TAF:

METAR-TAF

Flughäfen :

Bamako, Mali

Flughafen Bamako

Breite: 12-32N, Länge: 007-57W, Höhe: 380 m

Beobachtung

Neuester Wetterbericht von vor 45 Minuten, um 14:00 UTC
Wind 6 kt aus Ost/Nordost
Temperatur 35°C
Luftfeuchtigkeit 14%
Luftdruck 1012 hPa
Sichtweite: 8000 m

METAR: GABS 241400Z 07006KT 8000 NSC 35/04 Q1012 NOSIG

Zeit: 14:45 (14:45 UTC)

Prognose

Neuester Wetterbericht von vor 3 Stunden und 45 Minuten, um 11:00 UTC
Gültige Prognose vom 24 um 12 UTC bis 25 um 18 UTC
Wind 10 kt aus Ost/Nordost
Sichtweite: 8000 m
Wahrscheinlichkeit 40% :
Zeitweise
vom 25 um 06 UTC bis 25 um 11 UTC
Sichtweite: 4000 m
verbreitet Staub

TAF: GABS 241100Z 2412/2518 06010KT 8000 NSC PROB40 TEMPO 2506/2511 4000 DU

Wetterbeobachtungen und Prognosen von mehr als 4000 Flughäfen (METAR und TAF Bericht).

Die verfügbaren Stationen werden durch gelbe und rote Markierungen auf der Karte dargestellt.

Führen Sie die Maus auf sie, um den Namen der Station zu sehen.

Darauf klicken, um die Beobachtung von Wetterbeobachtungen und Prognosen zu sehen.

Um die Karte zu ändern : klicken Sie auf den grünen Tasten mit einem schwarzen Kreuz Zum Vergrößern, auf den grünen Button mit einem Gedankenstrich zu verkleinern, oder auf die grünen Pfeile für benachbarte Karten.


METAR-TAF: